sensor_id;sensor_type;location;lat;lon;timestamp;temperature;humidity
17659;DHT22;8948;51.534;8.262;2023-09-08T00:02:44;20.40;60.50
17659;DHT22;8948;51.534;8.262;2023-09-08T00:07:44;20.30;60.60
17659;DHT22;8948;51.534;8.262;2023-09-08T00:12:45;20.30;60.60
17659;DHT22;8948;51.534;8.262;2023-09-08T00:17:45;20.20;60.90
17659;DHT22;8948;51.534;8.262;2023-09-08T00:22:47;20.20;60.90
17659;DHT22;8948;51.534;8.262;2023-09-08T00:27:48;20.10;61.20
17659;DHT22;8948;51.534;8.262;2023-09-08T00:32:48;20.10;61.10
17659;DHT22;8948;51.534;8.262;2023-09-08T00:37:49;20.00;61.40
17659;DHT22;8948;51.534;8.262;2023-09-08T00:42:49;20.00;61.90
17659;DHT22;8948;51.534;8.262;2023-09-08T00:47:50;19.80;61.80
17659;DHT22;8948;51.534;8.262;2023-09-08T00:52:51;19.80;61.90
17659;DHT22;8948;51.534;8.262;2023-09-08T00:57:51;19.70;62.10
17659;DHT22;8948;51.534;8.262;2023-09-08T01:02:52;19.60;62.50
17659;DHT22;8948;51.534;8.262;2023-09-08T01:07:53;19.50;62.40
17659;DHT22;8948;51.534;8.262;2023-09-08T01:12:54;19.50;62.80
17659;DHT22;8948;51.534;8.262;2023-09-08T01:17:54;19.40;62.80
17659;DHT22;8948;51.534;8.262;2023-09-08T01:28:14;19.20;63.10
17659;DHT22;8948;51.534;8.262;2023-09-08T01:33:16;19.20;62.90
17659;DHT22;8948;51.534;8.262;2023-09-08T01:38:17;19.10;63.50
17659;DHT22;8948;51.534;8.262;2023-09-08T01:43:17;19.00;63.40
17659;DHT22;8948;51.534;8.262;2023-09-08T01:48:18;18.90;63.90
17659;DHT22;8948;51.534;8.262;2023-09-08T01:53:18;18.90;63.70
17659;DHT22;8948;51.534;8.262;2023-09-08T01:58:19;18.90;63.70
17659;DHT22;8948;51.534;8.262;2023-09-08T02:03:19;18.80;63.70
17659;DHT22;8948;51.534;8.262;2023-09-08T02:08:20;18.80;63.70
17659;DHT22;8948;51.534;8.262;2023-09-08T02:13:20;18.70;63.90
17659;DHT22;8948;51.534;8.262;2023-09-08T02:18:21;18.60;64.00
17659;DHT22;8948;51.534;8.262;2023-09-08T02:23:21;18.60;64.30
17659;DHT22;8948;51.534;8.262;2023-09-08T02:28:22;18.60;63.90
17659;DHT22;8948;51.534;8.262;2023-09-08T02:33:23;18.50;64.20
17659;DHT22;8948;51.534;8.262;2023-09-08T02:38:23;18.50;64.40
17659;DHT22;8948;51.534;8.262;2023-09-08T02:43:24;18.40;64.80
17659;DHT22;8948;51.534;8.262;2023-09-08T02:48:24;18.40;64.70
17659;DHT22;8948;51.534;8.262;2023-09-08T02:53:25;18.30;64.80
17659;DHT22;8948;51.534;8.262;2023-09-08T02:58:28;18.30;64.90
17659;DHT22;8948;51.534;8.262;2023-09-08T03:03:30;18.20;65.20
17659;DHT22;8948;51.534;8.262;2023-09-08T03:08:31;18.30;69.10
17659;DHT22;8948;51.534;8.262;2023-09-08T03:13:32;18.50;66.70
17659;DHT22;8948;51.534;8.262;2023-09-08T03:18:35;18.60;68.00
17659;DHT22;8948;51.534;8.262;2023-09-08T03:23:40;18.60;67.00
17659;DHT22;8948;51.534;8.262;2023-09-08T03:28:42;18.60;65.90
17659;DHT22;8948;51.534;8.262;2023-09-08T03:33:43;18.60;65.20
17659;DHT22;8948;51.534;8.262;2023-09-08T03:38:43;18.60;64.50
17659;DHT22;8948;51.534;8.262;2023-09-08T03:43:44;18.50;65.40
17659;DHT22;8948;51.534;8.262;2023-09-08T03:48:44;18.50;64.50
17659;DHT22;8948;51.534;8.262;2023-09-08T03:53:45;18.40;64.80
17659;DHT22;8948;51.534;8.262;2023-09-08T03:58:47;18.30;64.80
17659;DHT22;8948;51.534;8.262;2023-09-08T04:03:47;18.30;65.00
17659;DHT22;8948;51.534;8.262;2023-09-08T04:08:48;18.10;65.00
17659;DHT22;8948;51.534;8.262;2023-09-08T04:13:48;17.90;65.20
17659;DHT22;8948;51.534;8.262;2023-09-08T04:18:49;17.90;65.20
17659;DHT22;8948;51.534;8.262;2023-09-08T04:23:49;17.70;65.40
17659;DHT22;8948;51.534;8.262;2023-09-08T04:28:50;17.70;65.90
17659;DHT22;8948;51.534;8.262;2023-09-08T04:33:50;17.60;66.10
17659;DHT22;8948;51.534;8.262;2023-09-08T04:38:51;17.60;66.70
17659;DHT22;8948;51.534;8.262;2023-09-08T04:43:51;17.50;66.20
17659;DHT22;8948;51.534;8.262;2023-09-08T04:48:53;17.60;66.30
17659;DHT22;8948;51.534;8.262;2023-09-08T04:53:53;17.70;67.00
17659;DHT22;8948;51.534;8.262;2023-09-08T04:58:54;17.60;66.80
17659;DHT22;8948;51.534;8.262;2023-09-08T05:03:55;17.60;66.40
17659;DHT22;8948;51.534;8.262;2023-09-08T05:08:56;17.60;66.50
17659;DHT22;8948;51.534;8.262;2023-09-08T05:13:56;17.70;66.90
17659;DHT22;8948;51.534;8.262;2023-09-08T05:18:58;17.70;67.00
17659;DHT22;8948;51.534;8.262;2023-09-08T05:23:58;17.80;67.00
17659;DHT22;8948;51.534;8.262;2023-09-08T05:28:59;17.80;66.70
17659;DHT22;8948;51.534;8.262;2023-09-08T05:33:59;17.90;66.70
17659;DHT22;8948;51.534;8.262;2023-09-08T05:39:00;18.00;66.70
17659;DHT22;8948;51.534;8.262;2023-09-08T05:44:01;18.10;67.10
17659;DHT22;8948;51.534;8.262;2023-09-08T05:49:01;18.20;66.80
17659;DHT22;8948;51.534;8.262;2023-09-08T05:54:02;18.30;66.70
17659;DHT22;8948;51.534;8.262;2023-09-08T05:59:03;18.50;66.50
17659;DHT22;8948;51.534;8.262;2023-09-08T06:04:03;18.60;66.50
17659;DHT22;8948;51.534;8.262;2023-09-08T06:09:05;18.80;67.10
17659;DHT22;8948;51.534;8.262;2023-09-08T06:14:08;18.90;66.10
17659;DHT22;8948;51.534;8.262;2023-09-08T06:19:08;19.00;66.00
17659;DHT22;8948;51.534;8.262;2023-09-08T06:24:09;19.20;66.20
17659;DHT22;8948;51.534;8.262;2023-09-08T06:29:09;19.30;66.20
17659;DHT22;8948;51.534;8.262;2023-09-08T06:34:10;19.50;65.10
17659;DHT22;8948;51.534;8.262;2023-09-08T06:39:11;19.70;66.70
17659;DHT22;8948;51.534;8.262;2023-09-08T06:44:11;19.80;67.20
17659;DHT22;8948;51.534;8.262;2023-09-08T06:49:12;20.10;66.80
17659;DHT22;8948;51.534;8.262;2023-09-08T06:54:13;20.30;66.20
17659;DHT22;8948;51.534;8.262;2023-09-08T06:59:13;20.50;65.50
17659;DHT22;8948;51.534;8.262;2023-09-08T07:04:14;20.70;65.40
17659;DHT22;8948;51.534;8.262;2023-09-08T07:09:14;20.90;65.00
17659;DHT22;8948;51.534;8.262;2023-09-08T07:14:15;21.10;65.10
17659;DHT22;8948;51.534;8.262;2023-09-08T07:19:15;21.40;66.20
17659;DHT22;8948;51.534;8.262;2023-09-08T07:24:16;21.60;64.00
17659;DHT22;8948;51.534;8.262;2023-09-08T07:29:17;21.80;65.30
17659;DHT22;8948;51.534;8.262;2023-09-08T07:34:17;22.00;64.50
17659;DHT22;8948;51.534;8.262;2023-09-08T07:39:18;22.30;63.50
17659;DHT22;8948;51.534;8.262;2023-09-08T07:44:19;22.60;64.70
17659;DHT22;8948;51.534;8.262;2023-09-08T07:49:20;22.90;65.90
17659;DHT22;8948;51.534;8.262;2023-09-08T07:54:20;23.20;63.70
17659;DHT22;8948;51.534;8.262;2023-09-08T07:59:21;23.40;61.50
17659;DHT22;8948;51.534;8.262;2023-09-08T08:04:21;23.60;59.00
17659;DHT22;8948;51.534;8.262;2023-09-08T08:09:22;23.90;57.30
17659;DHT22;8948;51.534;8.262;2023-09-08T08:14:23;24.30;58.70
17659;DHT22;8948;51.534;8.262;2023-09-08T08:19:23;24.60;58.30
17659;DHT22;8948;51.534;8.262;2023-09-08T08:24:24;24.90;57.70
17659;DHT22;8948;51.534;8.262;2023-09-08T08:29:24;25.20;60.60
17659;DHT22;8948;51.534;8.262;2023-09-08T08:34:25;25.50;58.30
17659;DHT22;8948;51.534;8.262;2023-09-08T08:39:25;25.70;54.80
17659;DHT22;8948;51.534;8.262;2023-09-08T08:44:26;25.80;53.80
17659;DHT22;8948;51.534;8.262;2023-09-08T08:49:27;26.10;54.10
17659;DHT22;8948;51.534;8.262;2023-09-08T08:54:29;26.40;54.70
17659;DHT22;8948;51.534;8.262;2023-09-08T08:59:30;26.60;55.40
17659;DHT22;8948;51.534;8.262;2023-09-08T09:04:31;26.90;54.50
17659;DHT22;8948;51.534;8.262;2023-09-08T09:09:32;27.20;53.40
17659;DHT22;8948;51.534;8.262;2023-09-08T09:14:33;27.40;51.40
17659;DHT22;8948;51.534;8.262;2023-09-08T09:19:35;27.50;51.10
17659;DHT22;8948;51.534;8.262;2023-09-08T09:24:39;27.70;53.20
17659;DHT22;8948;51.534;8.262;2023-09-08T09:29:49;28.00;52.80
17659;DHT22;8948;51.534;8.262;2023-09-08T09:34:53;28.30;51.60
17659;DHT22;8948;51.534;8.262;2023-09-08T09:39:54;28.40;51.40
17659;DHT22;8948;51.534;8.262;2023-09-08T09:44:55;28.60;49.90
17659;DHT22;8948;51.534;8.262;2023-09-08T09:49:56;28.90;49.70
17659;DHT22;8948;51.534;8.262;2023-09-08T09:54:59;29.20;49.60
17659;DHT22;8948;51.534;8.262;2023-09-08T10:00:01;29.10;48.30
17659;DHT22;8948;51.534;8.262;2023-09-08T10:05:11;29.30;51.00
17659;DHT22;8948;51.534;8.262;2023-09-08T10:10:12;29.60;48.80
17659;DHT22;8948;51.534;8.262;2023-09-08T10:15:18;29.70;46.90
17659;DHT22;8948;51.534;8.262;2023-09-08T10:20:21;29.90;52.10
17659;DHT22;8948;51.534;8.262;2023-09-08T10:25:24;30.20;47.30
17659;DHT22;8948;51.534;8.262;2023-09-08T10:30:26;30.50;49.40
17659;DHT22;8948;51.534;8.262;2023-09-08T10:35:27;30.60;47.20
17659;DHT22;8948;51.534;8.262;2023-09-08T10:40:28;30.80;42.50
17659;DHT22;8948;51.534;8.262;2023-09-08T10:45:33;30.80;44.20
17659;DHT22;8948;51.534;8.262;2023-09-08T10:50:35;31.00;43.40
17659;DHT22;8948;51.534;8.262;2023-09-08T10:55:46;31.00;40.60
17659;DHT22;8948;51.534;8.262;2023-09-08T11:00:52;31.10;42.30
17659;DHT22;8948;51.534;8.262;2023-09-08T11:05:59;31.30;42.10
17659;DHT22;8948;51.534;8.262;2023-09-08T11:11:01;31.30;44.20
17659;DHT22;8948;51.534;8.262;2023-09-08T11:16:01;31.60;43.50
17659;DHT22;8948;51.534;8.262;2023-09-08T11:21:08;31.90;40.90
17659;DHT22;8948;51.534;8.262;2023-09-08T11:26:09;32.10;42.10
17659;DHT22;8948;51.534;8.262;2023-09-08T11:31:11;32.30;42.10
17659;DHT22;8948;51.534;8.262;2023-09-08T11:36:13;32.50;42.30
17659;DHT22;8948;51.534;8.262;2023-09-08T11:41:17;32.50;42.80
17659;DHT22;8948;51.534;8.262;2023-09-08T11:46:18;32.60;43.10
17659;DHT22;8948;51.534;8.262;2023-09-08T11:51:23;32.80;44.40
17659;DHT22;8948;51.534;8.262;2023-09-08T11:56:24;33.00;40.60
17659;DHT22;8948;51.534;8.262;2023-09-08T12:01:24;32.90;42.00
17659;DHT22;8948;51.534;8.262;2023-09-08T12:06:26;33.20;40.20
17659;DHT22;8948;51.534;8.262;2023-09-08T12:11:32;33.50;43.00
17659;DHT22;8948;51.534;8.262;2023-09-08T12:16:33;33.70;42.60
17659;DHT22;8948;51.534;8.262;2023-09-08T12:21:55;34.00;42.80
17659;DHT22;8948;51.534;8.262;2023-09-08T12:26:56;34.00;37.80
17659;DHT22;8948;51.534;8.262;2023-09-08T12:31:56;34.10;39.20
17659;DHT22;8948;51.534;8.262;2023-09-08T12:36:57;34.40;40.50
17659;DHT22;8948;51.534;8.262;2023-09-08T12:41:57;34.50;36.70
17659;DHT22;8948;51.534;8.262;2023-09-08T12:46:59;34.40;38.00
17659;DHT22;8948;51.534;8.262;2023-09-08T12:52:00;34.40;38.60
17659;DHT22;8948;51.534;8.262;2023-09-08T12:57:01;34.70;36.60
17659;DHT22;8948;51.534;8.262;2023-09-08T13:02:01;34.70;37.70
17659;DHT22;8948;51.534;8.262;2023-09-08T13:07:02;34.70;36.30
17659;DHT22;8948;51.534;8.262;2023-09-08T13:12:03;34.90;37.10
17659;DHT22;8948;51.534;8.262;2023-09-08T13:17:04;35.10;35.90
17659;DHT22;8948;51.534;8.262;2023-09-08T13:22:04;35.10;37.20
17659;DHT22;8948;51.534;8.262;2023-09-08T13:27:05;35.20;37.10
17659;DHT22;8948;51.534;8.262;2023-09-08T13:32:06;35.40;35.90
17659;DHT22;8948;51.534;8.262;2023-09-08T13:37:06;35.50;34.70
17659;DHT22;8948;51.534;8.262;2023-09-08T13:42:08;35.80;34.40
17659;DHT22;8948;51.534;8.262;2023-09-08T13:47:09;35.80;34.00
17659;DHT22;8948;51.534;8.262;2023-09-08T13:52:09;35.80;33.60
17659;DHT22;8948;51.534;8.262;2023-09-08T13:57:10;35.90;34.10
17659;DHT22;8948;51.534;8.262;2023-09-08T14:02:10;36.00;33.10
17659;DHT22;8948;51.534;8.262;2023-09-08T14:07:11;36.10;37.50
17659;DHT22;8948;51.534;8.262;2023-09-08T14:12:12;36.30;34.20
17659;DHT22;8948;51.534;8.262;2023-09-08T14:17:12;36.30;33.90
17659;DHT22;8948;51.534;8.262;2023-09-08T14:22:13;36.50;32.60
17659;DHT22;8948;51.534;8.262;2023-09-08T14:27:14;36.50;33.10
17659;DHT22;8948;51.534;8.262;2023-09-08T14:32:14;36.60;33.30
17659;DHT22;8948;51.534;8.262;2023-09-08T14:37:15;36.70;31.30
17659;DHT22;8948;51.534;8.262;2023-09-08T14:42:15;36.70;30.90
17659;DHT22;8948;51.534;8.262;2023-09-08T14:47:16;36.70;31.80
17659;DHT22;8948;51.534;8.262;2023-09-08T14:52:17;36.90;31.70
17659;DHT22;8948;51.534;8.262;2023-09-08T14:57:20;36.90;31.20
17659;DHT22;8948;51.534;8.262;2023-09-08T15:02:21;36.90;32.40
17659;DHT22;8948;51.534;8.262;2023-09-08T15:07:23;36.90;32.30
17659;DHT22;8948;51.534;8.262;2023-09-08T15:12:23;36.80;31.30
17659;DHT22;8948;51.534;8.262;2023-09-08T15:17:24;36.70;34.00
17659;DHT22;8948;51.534;8.262;2023-09-08T15:22:24;36.80;32.30
17659;DHT22;8948;51.534;8.262;2023-09-08T15:27:25;36.70;31.60
17659;DHT22;8948;51.534;8.262;2023-09-08T15:32:25;36.70;32.10
17659;DHT22;8948;51.534;8.262;2023-09-08T15:37:26;36.70;34.20
17659;DHT22;8948;51.534;8.262;2023-09-08T15:42:27;36.60;32.50
17659;DHT22;8948;51.534;8.262;2023-09-08T15:47:27;36.70;32.50
17659;DHT22;8948;51.534;8.262;2023-09-08T15:52:28;36.70;33.50
17659;DHT22;8948;51.534;8.262;2023-09-08T15:57:28;36.50;33.00
17659;DHT22;8948;51.534;8.262;2023-09-08T16:02:29;36.10;32.90
17659;DHT22;8948;51.534;8.262;2023-09-08T16:07:30;35.80;34.10
17659;DHT22;8948;51.534;8.262;2023-09-08T16:12:30;35.70;34.70
17659;DHT22;8948;51.534;8.262;2023-09-08T16:17:32;35.40;34.90
17659;DHT22;8948;51.534;8.262;2023-09-08T16:22:32;35.20;36.00
17659;DHT22;8948;51.534;8.262;2023-09-08T16:27:33;34.90;38.80
17659;DHT22;8948;51.534;8.262;2023-09-08T16:32:33;34.50;37.40
17659;DHT22;8948;51.534;8.262;2023-09-08T16:37:34;34.20;39.80
17659;DHT22;8948;51.534;8.262;2023-09-08T16:42:34;33.90;40.10
17659;DHT22;8948;51.534;8.262;2023-09-08T16:47:37;33.70;41.20
17659;DHT22;8948;51.534;8.262;2023-09-08T16:52:37;33.50;42.50
17659;DHT22;8948;51.534;8.262;2023-09-08T16:57:38;33.20;43.40
17659;DHT22;8948;51.534;8.262;2023-09-08T17:02:39;33.00;42.80
17659;DHT22;8948;51.534;8.262;2023-09-08T17:07:40;32.70;42.80
17659;DHT22;8948;51.534;8.262;2023-09-08T17:12:40;32.50;43.70
17659;DHT22;8948;51.534;8.262;2023-09-08T17:17:41;32.30;44.90
17659;DHT22;8948;51.534;8.262;2023-09-08T17:22:41;32.10;45.20
17659;DHT22;8948;51.534;8.262;2023-09-08T17:27:43;31.80;46.30
17659;DHT22;8948;51.534;8.262;2023-09-08T17:32:43;31.60;47.10
17659;DHT22;8948;51.534;8.262;2023-09-08T17:37:44;31.40;47.10
17659;DHT22;8948;51.534;8.262;2023-09-08T17:42:44;31.20;46.80
17659;DHT22;8948;51.534;8.262;2023-09-08T17:47:45;31.00;46.80
17659;DHT22;8948;51.534;8.262;2023-09-08T17:52:45;30.80;47.30
17659;DHT22;8948;51.534;8.262;2023-09-08T17:57:46;30.50;48.40
17659;DHT22;8948;51.534;8.262;2023-09-08T18:02:47;30.40;48.10
17659;DHT22;8948;51.534;8.262;2023-09-08T18:07:47;30.20;48.30
17659;DHT22;8948;51.534;8.262;2023-09-08T18:12:48;30.00;48.10
17659;DHT22;8948;51.534;8.262;2023-09-08T18:17:48;29.80;49.20
17659;DHT22;8948;51.534;8.262;2023-09-08T18:22:49;29.50;49.60
17659;DHT22;8948;51.534;8.262;2023-09-08T18:27:54;29.30;50.50
17659;DHT22;8948;51.534;8.262;2023-09-08T18:32:55;29.00;50.50
17659;DHT22;8948;51.534;8.262;2023-09-08T18:37:55;28.80;51.20
17659;DHT22;8948;51.534;8.262;2023-09-08T18:42:56;28.50;51.40
17659;DHT22;8948;51.534;8.262;2023-09-08T18:47:56;28.40;51.90
17659;DHT22;8948;51.534;8.262;2023-09-08T18:52:57;28.20;52.00
17659;DHT22;8948;51.534;8.262;2023-09-08T18:57:57;27.90;51.70
17659;DHT22;8948;51.534;8.262;2023-09-08T19:02:58;27.80;52.00
17659;DHT22;8948;51.534;8.262;2023-09-08T19:07:59;27.60;52.30
17659;DHT22;8948;51.534;8.262;2023-09-08T19:12:59;27.50;51.90
17659;DHT22;8948;51.534;8.262;2023-09-08T19:18:00;27.50;51.40
17659;DHT22;8948;51.534;8.262;2023-09-08T19:23:00;27.60;50.30
17659;DHT22;8948;51.534;8.262;2023-09-08T19:28:01;27.50;49.90
17659;DHT22;8948;51.534;8.262;2023-09-08T19:33:02;27.50;50.40
17659;DHT22;8948;51.534;8.262;2023-09-08T19:38:02;27.40;49.90
17659;DHT22;8948;51.534;8.262;2023-09-08T19:43:03;27.40;50.10
17659;DHT22;8948;51.534;8.262;2023-09-08T19:48:05;27.20;50.00
17659;DHT22;8948;51.534;8.262;2023-09-08T19:53:05;27.00;51.10
17659;DHT22;8948;51.534;8.262;2023-09-08T19:58:06;26.90;51.20
17659;DHT22;8948;51.534;8.262;2023-09-08T20:03:06;26.80;51.10
17659;DHT22;8948;51.534;8.262;2023-09-08T20:08:07;26.70;50.80
17659;DHT22;8948;51.534;8.262;2023-09-08T20:13:07;26.60;51.70
17659;DHT22;8948;51.534;8.262;2023-09-08T20:18:08;26.50;52.30
17659;DHT22;8948;51.534;8.262;2023-09-08T20:23:09;26.40;52.30
17659;DHT22;8948;51.534;8.262;2023-09-08T20:28:12;26.00;53.00
17659;DHT22;8948;51.534;8.262;2023-09-08T20:33:12;25.80;54.10
17659;DHT22;8948;51.534;8.262;2023-09-08T20:38:13;25.90;53.90
17659;DHT22;8948;51.534;8.262;2023-09-08T20:43:17;25.80;53.80
17659;DHT22;8948;51.534;8.262;2023-09-08T20:48:21;25.70;53.80
17659;DHT22;8948;51.534;8.262;2023-09-08T20:53:21;25.40;54.30
17659;DHT22;8948;51.534;8.262;2023-09-08T20:58:22;24.90;55.20
17659;DHT22;8948;51.534;8.262;2023-09-08T21:03:26;25.00;55.30
17659;DHT22;8948;51.534;8.262;2023-09-08T21:08:26;25.20;54.90
17659;DHT22;8948;51.534;8.262;2023-09-08T21:13:27;25.20;54.80
17659;DHT22;8948;51.534;8.262;2023-09-08T21:18:27;25.10;54.40
17659;DHT22;8948;51.534;8.262;2023-09-08T21:23:28;25.10;54.50
17659;DHT22;8948;51.534;8.262;2023-09-08T21:28:28;25.00;54.50
17659;DHT22;8948;51.534;8.262;2023-09-08T21:33:29;24.90;54.60
17659;DHT22;8948;51.534;8.262;2023-09-08T21:38:30;24.80;54.40
17659;DHT22;8948;51.534;8.262;2023-09-08T21:43:30;24.70;54.60
17659;DHT22;8948;51.534;8.262;2023-09-08T21:48:31;24.60;54.90
17659;DHT22;8948;51.534;8.262;2023-09-08T21:53:31;24.50;54.40
17659;DHT22;8948;51.534;8.262;2023-09-08T21:58:32;24.30;54.80
17659;DHT22;8948;51.534;8.262;2023-09-08T22:03:32;24.20;55.20
17659;DHT22;8948;51.534;8.262;2023-09-08T22:08:33;24.20;55.20
17659;DHT22;8948;51.534;8.262;2023-09-08T22:13:34;24.20;55.40
17659;DHT22;8948;51.534;8.262;2023-09-08T22:18:34;24.10;55.00
17659;DHT22;8948;51.534;8.262;2023-09-08T22:23:35;24.10;55.40
17659;DHT22;8948;51.534;8.262;2023-09-08T22:28:35;24.00;55.80
17659;DHT22;8948;51.534;8.262;2023-09-08T22:33:36;24.00;55.70
17659;DHT22;8948;51.534;8.262;2023-09-08T22:38:37;23.90;55.50
17659;DHT22;8948;51.534;8.262;2023-09-08T22:43:38;23.80;56.00
17659;DHT22;8948;51.534;8.262;2023-09-08T22:48:38;23.70;56.40
17659;DHT22;8948;51.534;8.262;2023-09-08T22:53:39;23.60;56.40
17659;DHT22;8948;51.534;8.262;2023-09-08T22:58:40;23.60;56.50
17659;DHT22;8948;51.534;8.262;2023-09-08T23:03:41;23.60;56.10
17659;DHT22;8948;51.534;8.262;2023-09-08T23:08:41;23.50;56.30
17659;DHT22;8948;51.534;8.262;2023-09-08T23:13:42;23.50;56.00
17659;DHT22;8948;51.534;8.262;2023-09-08T23:18:42;23.40;56.20
17659;DHT22;8948;51.534;8.262;2023-09-08T23:23:43;23.30;56.20
17659;DHT22;8948;51.534;8.262;2023-09-08T23:28:43;23.20;57.00
17659;DHT22;8948;51.534;8.262;2023-09-08T23:33:44;23.10;57.20
17659;DHT22;8948;51.534;8.262;2023-09-08T23:38:46;22.90;57.00
17659;DHT22;8948;51.534;8.262;2023-09-08T23:43:47;22.80;57.50
17659;DHT22;8948;51.534;8.262;2023-09-08T23:48:47;22.70;57.50
17659;DHT22;8948;51.534;8.262;2023-09-08T23:53:48;22.80;57.40
17659;DHT22;8948;51.534;8.262;2023-09-08T23:58:48;22.70;57.20
